Time;durP1;ratioP1;P1;durP2;ratioP2;P2;SDS_P1;SDS_P2;PMS_P1;PMS_P2;Temp;Humidity;BMP_temperature;BMP_pressure;BME280_temperature;BME280_humidity;BME280_pressure;Samples;Min_cycle;Max_cycle;Signal;HPM_P1;HPM_P2
2021/01/23 00:01:40;;;;;;;24.83;19.30;;;;;;;6.57;64.21;99542.81;4918834;29;20047;-80
2021/01/23 00:04:05;;;;;;;20.75;16.10;;;;;;;6.54;64.38;99537.00;4920558;29;20036;-81
2021/01/23 00:06:31;;;;;;;20.40;17.25;;;;;;;6.55;64.41;99538.66;4924070;29;20622;-81
2021/01/23 00:08:56;;;;;;;20.20;18.20;;;;;;;6.71;63.67;99534.78;4921361;29;20371;-81
2021/01/23 00:11:21;;;;;;;21.00;18.60;;;;;;;6.74;63.51;99537.88;4919735;29;20043;-81
2021/01/23 00:13:47;;;;;;;20.80;13.55;;;;;;;6.69;63.60;99531.41;4922785;29;20142;-81
2021/01/23 00:16:12;;;;;;;18.65;15.80;;;;;;;6.67;63.36;99523.50;4924790;29;20039;-81
2021/01/23 00:18:38;;;;;;;25.52;22.83;;;;;;;6.65;63.51;99528.31;4918230;29;20555;-81
2021/01/23 00:21:03;;;;;;;22.15;19.55;;;;;;;6.66;63.47;99523.72;4919146;29;20028;-81
2021/01/23 00:23:29;;;;;;;22.80;20.42;;;;;;;6.64;63.53;99521.22;4926853;29;20035;-81
2021/01/23 00:25:54;;;;;;;24.58;21.42;;;;;;;6.58;63.80;99514.78;4940287;28;20526;-80
2021/01/23 00:28:20;;;;;;;26.30;19.10;;;;;;;6.61;63.67;99510.81;4922434;29;20410;-81
2021/01/23 00:30:45;;;;;;;21.80;19.70;;;;;;;6.60;63.47;99504.59;4924301;29;20040;-81
2021/01/23 00:33:11;;;;;;;26.38;23.58;;;;;;;6.55;63.41;99506.22;4937396;29;20035;-80
2021/01/23 00:35:36;;;;;;;26.55;21.88;;;;;;;6.60;63.39;99501.06;4927492;29;20126;-80
2021/01/23 00:38:02;;;;;;;24.30;20.02;;;;;;;6.58;63.16;99503.13;4930388;29;20043;-81
2021/01/23 00:40:27;;;;;;;20.85;18.23;;;;;;;6.56;63.17;99497.94;4927536;29;20055;-80
2021/01/23 00:42:53;;;;;;;22.08;19.85;;;;;;;6.54;63.17;99494.59;4926763;29;20040;-81
2021/01/23 00:45:18;;;;;;;29.85;26.52;;;;;;;6.48;63.14;99498.13;4930756;29;20055;-80
2021/01/23 00:47:44;;;;;;;25.75;23.15;;;;;;;6.48;63.21;99490.03;4926406;29;20086;-80
2021/01/23 00:50:09;;;;;;;29.92;19.75;;;;;;;6.41;63.27;99484.59;4927579;29;20047;-80
2021/01/23 00:52:36;;;;;;;21.45;17.65;;;;;;;6.40;63.41;99485.63;4912183;29;20048;-80
2021/01/23 00:55:01;;;;;;;31.90;27.58;;;;;;;6.35;63.56;99484.56;4926906;29;20497;-80
2021/01/23 00:57:27;;;;;;;30.73;28.10;;;;;;;6.41;63.37;99478.34;4922647;29;20024;-80
2021/01/23 00:59:52;;;;;;;28.67;26.00;;;;;;;6.41;63.34;99478.34;4927529;29;20039;-80
2021/01/23 01:02:20;;;;;;;25.98;23.17;;;;;;;6.40;63.22;99472.13;4925242;29;20495;-80
2021/01/23 01:04:46;;;;;;;29.05;26.15;;;;;;;6.42;62.94;99478.16;4927385;29;20039;-80
2021/01/23 01:07:11;;;;;;;26.67;23.88;;;;;;;6.40;63.25;99482.13;4922549;29;20044;-81
2021/01/23 01:09:37;;;;;;;26.95;22.63;;;;;;;6.37;63.36;99477.94;4930389;29;20578;-80
2021/01/23 01:12:02;;;;;;;28.58;25.10;;;;;;;6.37;63.38;99475.25;4927848;29;20034;-80
2021/01/23 01:14:28;;;;;;;21.35;17.02;;;;;;;6.37;63.06;99471.72;4925788;29;20410;-80
2021/01/23 01:16:53;;;;;;;27.90;24.67;;;;;;;6.32;63.22;99468.78;4921934;29;20040;-80
2021/01/23 01:19:18;;;;;;;23.63;21.10;;;;;;;6.36;63.07;99468.16;4928102;29;20067;-80
2021/01/23 01:21:44;;;;;;;26.90;21.30;;;;;;;6.20;63.57;99460.44;4930392;29;20673;-80
2021/01/23 01:24:09;;;;;;;31.77;20.67;;;;;;;6.26;63.65;99467.75;4925365;29;20043;-80
2021/01/23 01:26:35;;;;;;;24.85;18.95;;;;;;;6.28;63.51;99468.34;4910296;29;20032;-80
2021/01/23 01:29:00;;;;;;;26.45;22.75;;;;;;;6.35;63.41;99468.38;4921402;29;20036;-80
2021/01/23 01:31:26;;;;;;;25.05;22.35;;;;;;;6.20;64.03;99461.28;4927683;29;20059;-80
2021/01/23 01:33:51;;;;;;;27.83;18.63;;;;;;;6.32;63.99;99464.22;4927704;29;20043;-79
2021/01/23 01:36:17;;;;;;;26.92;19.42;;;;;;;6.34;64.04;99464.84;4929067;29;20079;-80
2021/01/23 01:38:43;;;;;;;27.95;15.32;;;;;;;6.36;63.99;99467.34;4930314;29;20054;-80
2021/01/23 01:41:08;;;;;;;27.90;20.27;;;;;;;6.49;63.74;99456.59;4925430;29;20047;-80
2021/01/23 01:43:33;;;;;;;25.80;18.35;;;;;;;6.43;64.00;99450.13;4926283;29;20039;-80
2021/01/23 01:45:59;;;;;;;24.63;17.80;;;;;;;6.42;64.15;99455.72;4920119;29;20043;-80
2021/01/23 01:48:25;;;;;;;26.75;17.77;;;;;;;6.40;64.33;99450.53;4927603;29;20032;-80
2021/01/23 01:50:54;;;;;;;26.08;16.50;;;;;;;6.36;64.97;99448.44;4923779;29;20059;-80
2021/01/23 01:53:21;;;;;;;29.05;18.55;;;;;;;6.44;64.65;99441.00;4927387;29;20040;-80
2021/01/23 01:55:47;;;;;;;25.08;20.25;;;;;;;6.44;64.67;99441.00;4923253;29;20090;-80
2021/01/23 01:58:13;;;;;;;28.25;22.15;;;;;;;6.35;64.95;99436.81;4927320;29;20059;-80
2021/01/23 02:00:38;;;;;;;20.83;15.73;;;;;;;6.52;64.54;99436.41;4926606;29;20042;-80
2021/01/23 02:03:15;;;;;;;25.67;16.45;;;;;;;6.42;64.68;99439.53;4926202;29;20067;-80
2021/01/23 02:05:51;;;;;;;20.63;17.15;;;;;;;6.45;64.73;99431.84;4925583;29;20044;-80
2021/01/23 02:08:44;;;;;;;26.15;19.77;;;;;;;6.51;64.72;99435.59;4926477;29;20032;-80
2021/01/23 02:11:31;;;;;;;24.50;20.85;;;;;;;6.44;64.74;99423.94;4938431;29;20064;-80
2021/01/23 02:14:14;;;;;;;28.15;25.27;;;;;;;6.48;64.76;99429.78;4925508;29;20138;-80
2021/01/23 02:16:46;;;;;;;24.48;20.20;;;;;;;6.47;64.93;99412.72;4924777;29;20095;-79
2021/01/23 02:19:26;;;;;;;23.85;18.85;;;;;;;6.50;64.87;99417.72;4928140;29;20542;-80
2021/01/23 02:21:57;;;;;;;26.77;19.60;;;;;;;6.60;64.81;99414.63;4927036;29;20056;-79
2021/01/23 02:24:27;;;;;;;27.98;17.52;;;;;;;6.58;64.87;99414.84;4925309;29;20035;-80
2021/01/23 02:26:58;;;;;;;25.50;19.38;;;;;;;6.55;65.23;99415.25;4929226;29;20179;-80
2021/01/23 02:29:37;;;;;;;24.15;21.45;;;;;;;6.51;65.35;99408.59;4923978;29;20372;-80
2021/01/23 02:32:04;;;;;;;24.83;20.48;;;;;;;6.62;65.14;99409.84;4922196;29;20079;-81
2021/01/23 02:34:31;;;;;;;30.67;21.88;;;;;;;6.57;65.34;99407.78;4924410;29;20119;-80
2021/01/23 02:36:59;;;;;;;26.38;23.60;;;;;;;6.71;65.41;99419.41;4922021;29;20095;-80
2021/01/23 02:39:26;;;;;;;23.48;18.00;;;;;;;6.67;65.35;99412.75;4939700;29;20505;-82
2021/01/23 02:41:52;;;;;;;27.02;19.75;;;;;;;6.66;65.56;99415.66;4930109;29;20079;-81
2021/01/23 02:44:18;;;;;;;26.27;19.85;;;;;;;6.72;65.84;99410.28;4929828;29;20649;-82
2021/01/23 02:46:44;;;;;;;27.92;23.25;;;;;;;6.85;65.43;99416.75;4930186;29;20036;-81
2021/01/23 02:49:10;;;;;;;25.48;18.40;;;;;;;6.83;65.58;99408.84;4920990;29;20040;-82
2021/01/23 02:51:43;;;;;;;25.40;21.10;;;;;;;6.90;65.36;99408.81;4929629;29;20080;-82
2021/01/23 02:54:20;;;;;;;24.20;19.40;;;;;;;6.88;65.72;99405.50;4928190;29;20080;-82
2021/01/23 02:56:46;;;;;;;28.98;23.48;;;;;;;6.82;65.54;99399.88;4929235;29;20394;-82
2021/01/23 02:59:14;;;;;;;24.33;21.02;;;;;;;6.95;65.97;99403.63;4927855;29;20044;-82
2021/01/23 03:01:42;;;;;;;23.67;18.58;;;;;;;7.06;65.51;99402.16;4927797;29;20545;-82
2021/01/23 03:04:08;;;;;;;25.95;23.17;;;;;;;6.88;66.06;99392.81;4925025;29;20032;-85
2021/01/23 03:06:36;;;;;;;23.52;19.98;;;;;;;6.86;66.31;99391.34;4904967;29;20039;-81
2021/01/23 03:09:22;;;;;;;24.75;21.67;;;;;;;7.10;65.55;99384.50;4927689;29;20130;-82
2021/01/23 03:11:49;;;;;;;25.65;23.02;;;;;;;7.04;65.54;99386.16;4924897;29;20432;-82
2021/01/23 03:14:14;;;;;;;25.08;20.85;;;;;;;7.03;66.17;99376.41;4942169;29;20127;-82
2021/01/23 03:16:48;;;;;;;23.17;18.52;;;;;;;7.14;65.70;99375.75;4928165;29;20031;-81
2021/01/23 03:19:14;;;;;;;25.50;18.48;;;;;;;7.05;66.09;99371.59;4928064;29;20035;-82
2021/01/23 03:21:39;;;;;;;25.42;21.30;;;;;;;6.85;66.79;99368.91;4918616;29;20086;-83
2021/01/23 03:24:05;;;;;;;29.27;19.45;;;;;;;6.90;66.96;99369.13;4926797;29;20058;-82
2021/01/23 03:26:30;;;;;;;27.50;22.75;;;;;;;6.94;67.04;99372.25;4928865;29;20490;-83
2021/01/23 03:28:56;;;;;;;32.05;25.63;;;;;;;6.85;67.36;99362.69;4926536;29;20435;-83
2021/01/23 03:31:21;;;;;;;32.08;28.75;;;;;;;7.03;66.72;99365.59;4928746;29;20112;-82
2021/01/23 03:33:47;;;;;;;32.38;28.95;;;;;;;7.08;66.66;99373.88;4924748;29;20654;-82
2021/01/23 03:36:12;;;;;;;33.83;26.27;;;;;;;7.05;66.74;99368.91;4921132;29;20044;-83
2021/01/23 03:38:37;;;;;;;33.15;24.08;;;;;;;7.06;66.72;99367.88;4927331;29;20040;-82
2021/01/23 03:41:03;;;;;;;32.97;28.83;;;;;;;6.89;66.99;99370.19;4928815;29;20067;-82
2021/01/23 03:43:28;;;;;;;30.20;21.83;;;;;;;6.98;67.41;99362.66;4927343;29;20131;-82
2021/01/23 03:45:54;;;;;;;24.05;21.55;;;;;;;6.93;67.16;99366.00;4929103;29;20059;-82
2021/01/23 03:48:19;;;;;;;28.75;20.63;;;;;;;7.15;66.71;99355.78;4926506;29;20043;-82
2021/01/23 03:50:44;;;;;;;30.92;24.83;;;;;;;7.20;66.47;99351.59;4927212;29;20035;-82
2021/01/23 03:53:10;;;;;;;32.55;25.65;;;;;;;7.08;66.93;99343.34;4926779;29;20039;-83
2021/01/23 03:55:36;;;;;;;35.17;22.92;;;;;;;7.20;66.56;99348.91;4910169;29;20043;-82
2021/01/23 03:58:02;;;;;;;28.00;19.98;;;;;;;7.27;66.18;99338.91;4927353;29;20032;-82
2021/01/23 04:00:28;;;;;;;29.38;26.08;;;;;;;7.13;66.69;99347.03;4925067;29;20549;-83
2021/01/23 04:02:53;;;;;;;29.02;24.15;;;;;;;7.24;66.59;99342.88;4927538;29;20050;-83
2021/01/23 04:05:18;;;;;;;29.98;26.15;;;;;;;7.26;66.68;99348.91;4926933;29;20035;-82
2021/01/23 04:07:44;;;;;;;31.02;23.10;;;;;;;7.44;66.23;99340.09;4925483;29;20067;-82
2021/01/23 04:10:10;;;;;;;28.27;25.25;;;;;;;7.39;66.19;99334.50;4924137;29;20051;-83
2021/01/23 04:12:35;;;;;;;31.08;22.63;;;;;;;7.29;66.75;99336.81;4926673;29;20041;-82
2021/01/23 04:15:01;;;;;;;28.17;24.60;;;;;;;7.28;66.49;99327.88;4926640;29;20035;-82
2021/01/23 04:17:26;;;;;;;27.85;24.95;;;;;;;7.20;66.91;99324.56;4929303;29;20179;-82
2021/01/23 04:19:52;;;;;;;31.35;25.77;;;;;;;7.13;67.11;99319.19;4926926;29;20032;-82
2021/01/23 04:22:17;;;;;;;31.63;27.55;;;;;;;7.37;66.15;99314.97;4928017;29;20036;-82
2021/01/23 04:24:43;;;;;;;42.78;29.63;;;;;;;7.15;66.88;99317.94;4930044;29;20038;-84
2021/01/23 04:27:08;;;;;;;35.65;31.48;;;;;;;7.02;67.23;99314.44;4926847;29;20078;-83
2021/01/23 04:29:33;;;;;;;31.73;26.58;;;;;;;7.39;66.45;99317.47;4928630;29;20063;-82
2021/01/23 04:31:59;;;;;;;32.42;25.35;;;;;;;7.20;66.83;99305.66;4931022;29;20043;-83
2021/01/23 04:34:24;;;;;;;30.67;26.48;;;;;;;7.41;66.51;99318.06;4928413;29;20027;-83
2021/01/23 04:36:50;;;;;;;34.35;25.65;;;;;;;7.44;66.65;99312.22;4925895;29;20042;-82
2021/01/23 04:39:17;;;;;;;33.63;27.55;;;;;;;7.55;66.32;99311.56;4940652;28;20502;-83
2021/01/23 04:41:42;;;;;;;35.05;26.83;;;;;;;7.58;66.73;99315.72;4921981;29;20046;-82
2021/01/23 04:44:07;;;;;;;46.88;29.67;;;;;;;7.40;66.98;99305.56;4927671;29;20035;-83
2021/01/23 04:46:33;;;;;;;34.53;27.10;;;;;;;7.63;66.67;99307.78;4931198;29;20031;-82
2021/01/23 04:49:00;;;;;;;36.20;31.63;;;;;;;7.56;67.01;99312.41;4926417;29;20043;-82
2021/01/23 04:51:26;;;;;;;36.78;30.92;;;;;;;7.66;66.90;99320.88;4929427;29;20038;-81
2021/01/23 04:53:52;;;;;;;30.95;25.13;;;;;;;7.74;66.65;99312.53;4929269;29;20061;-82
2021/01/23 04:56:18;;;;;;;31.85;28.42;;;;;;;7.78;66.26;99305.63;4930286;29;20118;-82
2021/01/23 04:58:43;;;;;;;31.45;28.27;;;;;;;7.74;66.33;99320.66;4926394;29;20036;-81
2021/01/23 05:01:13;;;;;;;35.70;27.85;;;;;;;7.88;66.18;99306.00;4929905;29;20111;-82
2021/01/23 05:03:55;;;;;;;35.63;29.15;;;;;;;7.90;65.96;99308.47;4928296;29;20036;-82
2021/01/23 05:06:21;;;;;;;31.17;24.77;;;;;;;7.94;66.05;99307.00;4928668;29;20032;-82
2021/01/23 05:08:46;;;;;;;34.45;30.27;;;;;;;7.73;66.32;99286.50;4933988;29;20051;-82
2021/01/23 05:11:11;;;;;;;36.20;32.60;;;;;;;7.64;66.67;99287.81;4929228;29;20502;-82
2021/01/23 05:13:37;;;;;;;33.78;30.42;;;;;;;7.67;66.34;99280.06;4923125;29;20048;-83
2021/01/23 05:16:02;;;;;;;28.08;24.85;;;;;;;7.61;66.63;99274.69;4928178;29;20119;-83
2021/01/23 05:18:28;;;;;;;31.52;28.08;;;;;;;7.59;66.83;99279.50;4927581;29;20486;-83
2021/01/23 05:20:53;;;;;;;29.63;26.67;;;;;;;7.50;66.90;99295.16;4943108;28;20039;-83
2021/01/23 05:23:27;;;;;;;30.60;27.50;;;;;;;7.64;66.66;99298.63;4929082;29;20038;-83
2021/01/23 05:25:58;;;;;;;33.25;30.05;;;;;;;7.74;66.43;99288.19;4927185;29;20500;-82
2021/01/23 05:28:32;;;;;;;31.80;28.63;;;;;;;7.87;66.04;99296.19;4928130;29;20028;-82
2021/01/23 05:30:59;;;;;;;31.25;27.98;;;;;;;7.92;65.54;99294.72;4942227;29;20127;-82
2021/01/23 05:33:30;;;;;;;27.27;24.38;;;;;;;7.69;66.26;99286.13;4925768;29;20039;-82
2021/01/23 05:36:06;;;;;;;24.98;19.25;;;;;;;7.89;65.86;99291.41;4923689;29;20477;-83
2021/01/23 05:38:34;;;;;;;23.38;20.88;;;;;;;7.79;65.86;99284.81;4929103;29;20538;-82
2021/01/23 05:41:05;;;;;;;23.20;20.77;;;;;;;7.69;66.10;99286.13;4926607;29;20047;-84
2021/01/23 05:43:32;;;;;;;;;;;;;;;7.71;66.00;99285.91;4943044;28;20032;-82
2021/01/23 05:45:58;;;;;;;22.17;18.02;;;;;;;7.57;66.41;99282.44;4928795;29;19922;-82
2021/01/23 05:48:24;;;;;;;20.88;18.75;;;;;;;7.67;66.00;99281.97;4927068;29;20043;-82
2021/01/23 05:50:51;;;;;;;24.50;18.77;;;;;;;7.68;65.82;99289.03;4930303;29;20502;-82
2021/01/23 05:53:17;;;;;;;20.92;18.92;;;;;;;7.81;65.59;99278.13;4929248;29;20505;-82
2021/01/23 05:55:42;;;;;;;26.60;23.90;;;;;;;7.77;66.12;99279.63;4941186;29;20027;-82
2021/01/23 05:58:08;;;;;;;23.58;21.20;;;;;;;7.86;65.54;99278.31;4927567;29;20501;-82
2021/01/23 06:00:34;;;;;;;24.92;22.63;;;;;;;7.77;65.72;99281.47;4928158;29;20114;-82
2021/01/23 06:03:00;;;;;;;23.10;18.75;;;;;;;7.92;65.56;99289.31;4928056;29;20058;-82
2021/01/23 06:05:25;;;;;;;24.27;20.35;;;;;;;7.93;65.46;99289.09;4938224;28;20482;-83
2021/01/23 06:07:51;;;;;;;26.95;24.45;;;;;;;7.87;65.78;99281.84;4924577;29;20040;-83
2021/01/23 06:10:22;;;;;;;21.75;19.42;;;;;;;8.03;65.58;99294.88;4926972;29;20040;-82
2021/01/23 06:12:48;;;;;;;;;;;;;;;7.79;66.60;99296.47;4919607;29;20040;-83
2021/01/23 06:15:32;;;;;;;23.90;21.45;;;;;;;7.95;66.05;99300.53;4929039;29;19926;-83
2021/01/23 06:18:23;;;;;;;27.05;24.17;;;;;;;8.12;65.54;99300.84;4928988;29;20042;-82
2021/01/23 06:20:49;;;;;;;;;;;;;;;8.10;65.77;99300.22;4923179;29;20141;-83
2021/01/23 06:23:16;;;;;;;22.05;19.95;;;;;;;8.06;66.08;99307.13;4925277;29;20366;-83
2021/01/23 06:25:51;;;;;;;22.60;20.02;;;;;;;7.92;66.38;99305.56;4925160;29;20440;-85
2021/01/23 06:28:25;;;;;;;25.70;22.10;;;;;;;7.97;66.22;99308.44;4920167;29;20040;-83
2021/01/23 06:30:53;;;;;;;24.33;22.02;;;;;;;8.11;66.05;99311.88;4925215;29;20769;-82
2021/01/23 06:33:22;;;;;;;24.48;21.95;;;;;;;8.06;66.09;99309.81;4925509;29;20972;-84
2021/01/23 06:36:10;;;;;;;19.98;17.67;;;;;;;8.03;65.94;99304.84;4928595;29;20039;-82
2021/01/23 06:38:37;;;;;;;21.08;18.90;;;;;;;8.16;65.61;99303.94;4918019;29;20047;-82
2021/01/23 06:41:24;;;;;;;26.23;23.85;;;;;;;8.06;65.67;99296.28;4924894;29;20040;-82
2021/01/23 06:44:08;;;;;;;23.05;20.77;;;;;;;8.08;65.60;99288.81;4925012;29;20032;-82
2021/01/23 06:46:34;;;;;;;19.00;17.00;;;;;;;7.97;65.58;99286.78;4923762;29;20039;-81
2021/01/23 06:49:20;;;;;;;20.13;18.08;;;;;;;7.95;66.00;99288.88;4919149;29;20040;-83
2021/01/23 06:51:45;;;;;;;18.58;16.90;;;;;;;7.80;66.46;99287.31;4924180;29;20039;-82
2021/01/23 06:54:21;;;;;;;21.73;19.80;;;;;;;7.85;66.34;99289.38;4921218;29;20059;-83
2021/01/23 06:56:52;;;;;;;24.90;22.92;;;;;;;8.05;65.73;99289.25;4922173;29;20114;-82
2021/01/23 06:59:26;;;;;;;20.27;16.95;;;;;;;8.00;66.16;99295.31;4925619;29;20158;-82
2021/01/23 07:01:57;;;;;;;17.15;15.50;;;;;;;8.05;65.98;99302.78;4918162;29;20032;-82
2021/01/23 07:04:23;;;;;;;19.55;17.35;;;;;;;8.16;65.56;99302.06;4927764;29;20581;-83
2021/01/23 07:06:48;;;;;;;19.83;17.60;;;;;;;8.18;65.46;99302.66;4923304;29;20052;-83
2021/01/23 07:09:13;;;;;;;18.67;16.52;;;;;;;8.13;65.51;99305.22;4927704;29;20039;-83
2021/01/23 07:11:39;;;;;;;22.40;20.27;;;;;;;8.15;65.67;99313.94;4919701;29;20035;-83
2021/01/23 07:14:06;;;;;;;23.83;21.92;;;;;;;8.12;66.05;99314.38;4907862;29;20047;-82
2021/01/23 07:16:34;;;;;;;23.90;21.58;;;;;;;8.04;66.20;99315.47;4923823;29;20427;-83
2021/01/23 07:19:08;;;;;;;19.45;17.58;;;;;;;8.21;65.74;99332.03;4923317;29;20061;-82
2021/01/23 07:21:40;;;;;;;20.13;18.25;;;;;;;8.12;65.96;99322.50;4923623;29;20028;-82
2021/01/23 07:24:09;;;;;;;20.45;18.77;;;;;;;8.05;66.16;99324.44;4921541;29;20095;-83
2021/01/23 07:26:34;;;;;;;20.83;18.98;;;;;;;8.03;66.27;99326.50;4922733;29;20036;-84
2021/01/23 07:28:59;;;;;;;25.85;23.77;;;;;;;8.13;66.00;99318.75;4922325;29;20046;-83
2021/01/23 07:31:32;;;;;;;21.13;19.33;;;;;;;8.10;66.08;99326.50;4924935;29;20035;-81
2021/01/23 07:34:18;;;;;;;20.90;19.10;;;;;;;8.24;65.57;99330.75;4927474;29;20044;-81
2021/01/23 07:36:45;;;;;;;17.95;14.35;;;;;;;8.22;65.32;99322.03;4924547;29;20518;-81
2021/01/23 07:39:13;;;;;;;19.50;17.85;;;;;;;8.31;65.36;99336.97;4923548;29;20047;-81
2021/01/23 07:41:45;;;;;;;17.40;14.43;;;;;;;8.23;65.53;99338.06;4925179;29;20035;-81
2021/01/23 07:44:11;;;;;;;16.85;13.23;;;;;;;7.97;66.03;99341.75;4923499;29;20554;-80
2021/01/23 07:46:40;;;;;;;13.18;11.95;;;;;;;8.29;65.25;99349.06;4929497;29;20044;-81
2021/01/23 07:49:07;;;;;;;13.95;12.77;;;;;;;8.00;65.11;99346.75;4929413;29;20036;-81
2021/01/23 07:51:32;;;;;;;14.00;12.82;;;;;;;8.17;64.10;99354.34;4928349;29;20130;-81
2021/01/23 07:54:09;;;;;;;10.75;9.70;;;;;;;8.36;63.25;99352.56;4927030;29;20510;-81
2021/01/23 07:56:36;;;;;;;12.38;10.00;;;;;;;8.34;62.92;99354.66;4926629;29;20027;-82
2021/01/23 07:59:02;;;;;;;14.32;13.07;;;;;;;8.27;62.67;99357.41;4927846;29;20036;-83
2021/01/23 08:01:27;;;;;;;14.35;11.65;;;;;;;8.25;62.51;99356.81;4926588;29;20498;-82
2021/01/23 08:03:53;;;;;;;11.60;10.38;;;;;;;8.12;62.33;99346.88;4927779;29;20046;-82
2021/01/23 08:06:20;;;;;;;9.38;8.45;;;;;;;8.38;61.65;99347.75;4929945;29;20047;-82
2021/01/23 08:08:45;;;;;;;11.10;7.15;;;;;;;8.15;61.68;99346.44;4929163;29;20086;-82
2021/01/23 08:11:33;;;;;;;7.57;6.90;;;;;;;8.24;61.13;99347.81;4929300;29;20031;-81
2021/01/23 08:14:16;;;;;;;13.80;10.93;;;;;;;8.29;60.63;99354.47;4928087;29;20067;-82
2021/01/23 08:16:53;;;;;;;13.57;11.90;;;;;;;8.15;60.54;99354.56;4929978;29;20514;-82
2021/01/23 08:19:19;;;;;;;7.35;6.80;;;;;;;8.19;60.73;99355.78;4929509;29;20631;-82
2021/01/23 08:22:06;;;;;;;8.98;7.70;;;;;;;8.13;60.24;99364.78;4929620;29;20036;-82
2021/01/23 08:24:32;;;;;;;7.18;6.55;;;;;;;8.16;60.55;99364.34;4927873;29;20107;-82
2021/01/23 08:27:14;;;;;;;10.82;9.85;;;;;;;8.20;60.63;99370.16;4929939;29;20127;-82
2021/01/23 08:29:42;;;;;;;9.80;9.02;;;;;;;8.21;60.48;99374.53;4926766;29;20087;-82
2021/01/23 08:32:07;;;;;;;6.97;5.90;;;;;;;8.38;60.55;99370.25;4926234;29;20049;-82
2021/01/23 08:34:33;;;;;;;9.75;8.95;;;;;;;8.38;60.77;99382.97;4944304;28;20032;-82
2021/01/23 08:36:58;;;;;;;7.10;6.43;;;;;;;8.46;60.84;99379.19;4929151;29;20036;-82
2021/01/23 08:39:23;;;;;;;6.07;3.35;;;;;;;8.37;60.79;99382.16;4927522;29;20103;-82
2021/01/23 08:41:49;;;;;;;5.22;4.15;;;;;;;8.32;61.05;99381.13;4930715;29;20035;-83
2021/01/23 08:44:14;;;;;;;7.10;4.47;;;;;;;8.24;61.08;99374.91;4926845;29;20326;-83
2021/01/23 08:46:40;;;;;;;7.18;6.68;;;;;;;8.71;61.25;99384.63;4924903;29;20032;-82
2021/01/23 08:49:05;;;;;;;11.18;8.82;;;;;;;9.08;58.40;99393.72;4929713;29;20027;-82
2021/01/23 08:51:33;;;;;;;10.02;9.23;;;;;;;9.86;58.45;99380.56;4928032;29;20046;-81
2021/01/23 08:53:58;;;;;;;11.30;10.63;;;;;;;10.67;55.23;99391.16;4928735;29;20485;-82
2021/01/23 08:56:24;;;;;;;12.50;11.68;;;;;;;11.27;53.83;99380.09;4926529;29;20051;-82
2021/01/23 08:58:49;;;;;;;6.85;6.25;;;;;;;12.06;52.47;99376.06;4926553;29;20035;-81
2021/01/23 09:01:15;;;;;;;8.50;5.10;;;;;;;12.63;49.85;99385.31;4925435;29;20028;-82
2021/01/23 09:03:40;;;;;;;5.65;3.08;;;;;;;13.14;48.13;99388.03;4928134;29;20032;-81
2021/01/23 09:06:07;;;;;;;4.30;2.70;;;;;;;13.28;46.94;99393.97;4926562;29;20042;-82
2021/01/23 09:08:33;;;;;;;4.25;2.60;;;;;;;12.06;49.42;99397.06;4927972;29;20122;-82
2021/01/23 09:10:58;;;;;;;3.13;2.58;;;;;;;12.15;50.33;99399.16;4929781;29;20040;-82
2021/01/23 09:13:23;;;;;;;4.75;4.30;;;;;;;11.62;51.61;99398.31;4927865;29;20048;-82
2021/01/23 09:15:49;;;;;;;5.07;4.65;;;;;;;11.83;51.99;99399.59;4929738;29;20068;-82
2021/01/23 09:18:14;;;;;;;6.30;3.15;;;;;;;11.69;51.71;99398.16;4927037;29;20020;-82
2021/01/23 09:20:40;;;;;;;6.43;3.50;;;;;;;11.49;52.18;99403.19;4940903;29;20039;-82
2021/01/23 09:23:05;;;;;;;7.00;6.13;;;;;;;10.95;52.91;99406.00;4927400;29;20038;-82
2021/01/23 09:25:30;;;;;;;6.55;4.15;;;;;;;10.20;54.80;99403.50;4913301;29;20046;-82
2021/01/23 09:27:57;;;;;;;5.53;4.47;;;;;;;9.87;55.82;99406.69;4928430;29;20043;-82
2021/01/23 09:30:23;;;;;;;5.57;5.20;;;;;;;9.80;56.03;99409.44;4926007;29;20128;-81
2021/01/23 09:32:48;;;;;;;4.63;4.25;;;;;;;9.60;56.76;99408.84;4926928;29;20514;-81
2021/01/23 09:35:14;;;;;;;5.05;4.47;;;;;;;9.39;57.10;99416.38;4943281;28;20038;-83
2021/01/23 09:37:39;;;;;;;6.15;3.70;;;;;;;9.26;57.05;99403.75;4924756;29;20031;-82
2021/01/23 09:40:06;;;;;;;5.43;4.63;;;;;;;9.41;56.80;99413.44;4929135;29;20145;-80
2021/01/23 09:42:32;;;;;;;3.28;3.08;;;;;;;9.19;57.22;99416.56;4920178;29;20486;-80
2021/01/23 09:44:57;;;;;;;4.30;4.00;;;;;;;9.14;57.49;99402.84;4925838;29;20039;-80
2021/01/23 09:47:23;;;;;;;5.85;5.40;;;;;;;9.11;57.40;99406.00;4912870;29;20513;-80
2021/01/23 09:49:48;;;;;;;5.15;4.20;;;;;;;8.73;58.71;99404.22;4926849;29;20040;-80
2021/01/23 09:52:14;;;;;;;6.07;5.63;;;;;;;8.81;58.78;99411.25;4927938;29;20040;-81
2021/01/23 09:54:40;;;;;;;5.15;3.70;;;;;;;8.95;58.97;99420.94;4926237;29;20138;-81
2021/01/23 09:57:06;;;;;;;6.38;5.82;;;;;;;9.03;58.61;99414.41;4923825;29;20044;-81
2021/01/23 09:59:31;;;;;;;8.63;7.85;;;;;;;9.06;58.46;99422.94;4926443;29;20031;-81
2021/01/23 10:02:01;;;;;;;10.43;9.57;;;;;;;9.11;58.59;99427.69;4925778;29;20127;-81
2021/01/23 10:04:29;;;;;;;10.63;9.70;;;;;;;9.13;58.33;99415.56;4927827;29;20547;-82
2021/01/23 10:06:55;;;;;;;6.68;5.80;;;;;;;9.09;58.53;99427.09;4928001;29;20088;-81
2021/01/23 10:09:21;;;;;;;6.22;5.75;;;;;;;9.45;58.43;99422.78;4927461;29;20036;-81
2021/01/23 10:11:47;;;;;;;11.07;7.63;;;;;;;9.70;58.68;99427.31;4927044;29;20103;-81
2021/01/23 10:14:12;;;;;;;12.60;6.03;;;;;;;10.78;57.91;99414.00;4926170;29;20042;-81
2021/01/23 10:16:39;;;;;;;14.00;7.05;;;;;;;12.15;53.37;99414.69;4926632;29;20146;-80
2021/01/23 10:19:04;;;;;;;13.05;5.45;;;;;;;12.94;50.78;99416.66;4925936;29;20138;-81
2021/01/23 10:21:30;;;;;;;14.40;4.90;;;;;;;12.70;49.81;99416.81;4927827;29;20035;-81
2021/01/23 10:23:57;;;;;;;12.23;4.88;;;;;;;12.47;50.12;99423.19;4922349;29;20054;-81
2021/01/23 10:26:22;;;;;;;16.52;7.90;;;;;;;12.04;50.99;99419.09;4921813;29;20031;-80
2021/01/23 10:28:48;;;;;;;10.82;5.68;;;;;;;11.77;52.21;99422.34;4926926;29;20107;-81
2021/01/23 10:31:13;;;;;;;6.32;4.55;;;;;;;11.18;52.99;99424.25;4924134;29;20035;-81
2021/01/23 10:33:38;;;;;;;12.57;3.67;;;;;;;11.03;53.19;99430.97;4926809;29;20035;-81
2021/01/23 10:36:04;;;;;;;6.63;5.00;;;;;;;10.86;53.11;99428.13;4916559;29;20047;-81
2021/01/23 10:38:30;;;;;;;5.53;4.60;;;;;;;10.61;52.81;99430.16;4906839;29;20032;-81
2021/01/23 10:40:55;;;;;;;7.15;5.25;;;;;;;10.46;53.70;99434.16;4923039;29;20518;-81
2021/01/23 10:43:21;;;;;;;12.50;7.07;;;;;;;10.72;54.60;99427.50;4923248;29;20044;-81
2021/01/23 10:45:47;;;;;;;10.23;4.88;;;;;;;10.86;54.79;99436.28;4927262;29;20490;-81
2021/01/23 10:48:12;;;;;;;10.07;4.85;;;;;;;10.86;54.34;99429.97;4923706;29;20107;-82
2021/01/23 10:50:38;;;;;;;10.75;4.68;;;;;;;11.05;53.42;99409.81;4924542;29;20039;-80
2021/01/23 10:53:03;;;;;;;6.82;4.32;;;;;;;11.06;53.32;99425.06;4924176;29;20431;-81
2021/01/23 10:55:29;;;;;;;4.97;4.53;;;;;;;10.99;53.24;99424.34;4907436;29;20043;-81
2021/01/23 10:57:54;;;;;;;7.75;5.35;;;;;;;11.23;52.07;99416.19;4921668;29;20040;-81
2021/01/23 11:00:20;;;;;;;6.78;5.32;;;;;;;11.10;52.64;99428.97;4924186;29;20463;-83
2021/01/23 11:02:45;;;;;;;9.20;6.80;;;;;;;11.25;52.31;99431.22;4920959;29;20040;-81
2021/01/23 11:05:11;;;;;;;6.30;4.65;;;;;;;10.99;53.03;99427.06;4920244;29;20039;-82
2021/01/23 11:07:37;;;;;;;8.00;7.28;;;;;;;11.00;53.65;99433.31;4923600;29;20577;-81
2021/01/23 11:10:04;;;;;;;5.78;4.38;;;;;;;11.00;52.99;99417.00;4923300;29;20102;-82
2021/01/23 11:12:29;;;;;;;6.38;5.50;;;;;;;11.33;52.07;99421.06;4926818;28;20036;-81
2021/01/23 11:14:55;;;;;;;9.13;7.03;;;;;;;11.47;50.98;99411.59;4922166;29;20039;-81
2021/01/23 11:17:20;;;;;;;9.35;7.47;;;;;;;11.16;50.09;99423.66;4922995;29;20124;-82
2021/01/23 11:19:46;;;;;;;8.35;5.93;;;;;;;11.58;50.00;99424.34;4920094;29;20035;-81
2021/01/23 11:22:11;;;;;;;7.72;5.28;;;;;;;11.88;48.64;99420.66;4917931;29;20032;-81
2021/01/23 11:24:36;;;;;;;6.70;5.60;;;;;;;11.56;48.48;99420.22;4918480;29;20170;-82
2021/01/23 11:27:02;;;;;;;7.53;4.65;;;;;;;11.58;48.54;99426.25;4922492;29;20390;-82
2021/01/23 11:29:28;;;;;;;6.15;3.85;;;;;;;11.14;49.91;99420.31;4923519;29;20051;-82
2021/01/23 11:31:53;;;;;;;3.67;3.00;;;;;;;11.09;50.35;99434.63;4918175;29;20047;-82